Time;durP1;ratioP1;P1;durP2;ratioP2;P2;SDS_P1;SDS_P2;PMS_P1;PMS_P2;Temp;Humidity;BMP_temperature;BMP_pressure;BME280_temperature;BME280_humidity;BME280_pressure;Samples;Min_cycle;Max_cycle;Signal;HPM_P1;HPM_P2
2022/11/20 00:00:18;;;;;;;2.47;0.85;;;;;;;22.50;33.38;101873.56;4214176;28;20058;-68
2022/11/20 00:02:19;;;;;;;1.10;0.88;;;;;;;22.53;33.15;101875.78;4207305;28;20051;-68
2022/11/20 00:04:21;;;;;;;4.07;1.10;;;;;;;22.53;33.56;101875.78;4206891;28;20074;-68
2022/11/20 00:06:23;;;;;;;4.97;1.10;;;;;;;22.51;33.56;101861.28;4213684;28;20036;-68
2022/11/20 00:08:24;;;;;;;4.97;1.30;;;;;;;22.54;33.59;101857.91;4203120;28;20036;-67
2022/11/20 00:10:26;;;;;;;2.00;0.80;;;;;;;22.53;33.43;101864.63;4202715;28;20040;-68
2022/11/20 00:12:27;;;;;;;9.48;1.00;;;;;;;22.53;33.73;101865.47;4210150;28;20045;-68
2022/11/20 00:14:28;;;;;;;10.45;1.05;;;;;;;22.54;33.58;101869.09;4210830;28;20069;-67
2022/11/20 00:16:31;;;;;;;10.73;1.30;;;;;;;22.53;33.50;101878.56;4210753;28;20051;-69
2022/11/20 00:18:34;;;;;;;3.20;0.95;;;;;;;22.52;33.94;101874.09;4208738;28;20460;-69
2022/11/20 00:20:35;;;;;;;5.75;1.30;;;;;;;22.53;33.72;101878.56;4211772;28;20464;-69
2022/11/20 00:22:36;;;;;;;6.90;1.35;;;;;;;22.51;33.72;101873.25;4202395;28;20437;-70
2022/11/20 00:24:37;;;;;;;5.78;1.50;;;;;;;22.49;33.45;101869.06;4213774;28;20500;-69
2022/11/20 00:26:39;;;;;;;9.05;1.20;;;;;;;22.49;33.89;101861.53;4210223;28;20436;-69
2022/11/20 00:28:41;;;;;;;15.50;1.70;;;;;;;22.46;33.90;101859.28;4218244;28;20043;-68
2022/11/20 00:30:42;;;;;;;10.82;1.67;;;;;;;22.47;33.61;101869.34;4218776;28;20044;-68
2022/11/20 00:32:46;;;;;;;7.93;1.30;;;;;;;22.46;33.63;101866.81;4204485;28;20036;-68
2022/11/20 00:34:47;;;;;;;7.53;1.73;;;;;;;22.49;33.71;101857.91;4213845;28;20048;-68
2022/11/20 00:36:49;;;;;;;7.35;1.60;;;;;;;22.46;34.00;101852.88;4212629;28;20433;-66
2022/11/20 00:38:58;;;;;;;12.68;1.70;;;;;;;22.39;34.11;101852.25;4208225;28;20560;-68
2022/11/20 00:41:01;;;;;;;10.32;2.45;;;;;;;22.41;33.91;101861.22;4211185;28;20153;-68
2022/11/20 00:43:02;;;;;;;8.20;1.80;;;;;;;22.43;33.85;101856.19;4215801;28;20729;-67
2022/11/20 00:45:04;;;;;;;16.25;2.53;;;;;;;22.37;34.00;101843.34;4209216;28;20036;-68
2022/11/20 00:47:06;;;;;;;9.93;2.53;;;;;;;22.40;34.51;101848.34;4215906;28;20036;-69
2022/11/20 00:49:07;;;;;;;8.70;2.35;;;;;;;22.39;34.30;101835.53;4215819;28;20032;-68
2022/11/20 00:51:11;;;;;;;8.40;2.63;;;;;;;22.38;34.32;101840.28;4213018;28;20040;-68
2022/11/20 00:53:12;;;;;;;11.43;2.65;;;;;;;22.28;34.45;101829.91;4215119;28;20036;-68
2022/11/20 00:55:16;;;;;;;11.13;2.92;;;;;;;22.37;34.85;101834.97;4213893;27;20098;-68
2022/11/20 00:57:17;;;;;;;8.40;3.55;;;;;;;22.40;34.63;101831.63;4214026;28;20120;-68
2022/11/20 00:59:19;;;;;;;6.25;2.80;;;;;;;22.07;34.56;101781.47;4208399;28;20040;-68
2022/11/20 01:01:26;;;;;;;13.30;2.70;;;;;;;22.42;34.82;101826.63;4199384;28;20418;-68
2022/11/20 01:03:27;;;;;;;7.72;2.60;;;;;;;22.35;34.68;101800.91;4214809;28;20093;-68
2022/11/20 01:05:28;;;;;;;7.63;3.20;;;;;;;22.43;34.35;101819.94;4210941;28;20041;-67
2022/11/20 01:07:30;;;;;;;6.00;2.60;;;;;;;22.45;34.62;101828.88;4212584;28;20039;-68
2022/11/20 01:09:34;;;;;;;7.30;3.00;;;;;;;22.46;34.54;101813.84;4212423;28;20090;-68
2022/11/20 01:11:39;;;;;;;8.98;2.95;;;;;;;22.44;34.52;101804.88;4205042;28;20056;-69
2022/11/20 01:13:41;;;;;;;;;;;;;;;22.49;34.54;101813.28;4201217;28;20097;-68
2022/11/20 01:15:42;;;;;;;7.90;3.00;;;;;;;22.58;34.46;101800.47;4214795;28;19916;-67
2022/11/20 01:17:43;;;;;;;9.40;3.20;;;;;;;22.24;34.20;101750.69;4212926;28;20093;-68
2022/11/20 01:19:44;;;;;;;7.72;2.72;;;;;;;22.58;34.08;101800.47;4199111;28;20058;-67
2022/11/20 01:21:49;;;;;;;10.02;2.90;;;;;;;22.57;34.10;101805.22;4212487;28;20040;-68
2022/11/20 01:23:51;;;;;;;6.45;2.85;;;;;;;22.58;34.06;101789.31;4207882;28;20098;-68
2022/11/20 01:25:52;;;;;;;8.85;2.50;;;;;;;22.59;34.07;101796.63;4199015;28;20090;-68
2022/11/20 01:27:56;;;;;;;17.92;3.10;;;;;;;22.60;34.00;101791.88;4202376;28;20372;-68
2022/11/20 01:29:57;;;;;;;5.75;2.72;;;;;;;22.59;34.22;101791.03;4202238;28;20040;-69
2022/11/20 01:31:59;;;;;;;6.88;2.70;;;;;;;22.43;34.27;101761.38;4214549;28;20044;-68
2022/11/20 01:34:06;;;;;;;4.68;2.15;;;;;;;22.60;33.90;101775.13;4205009;28;20044;-68
2022/11/20 01:36:11;;;;;;;10.25;2.40;;;;;;;22.46;34.26;101756.09;4212432;28;20090;-68
2022/11/20 01:38:15;;;;;;;5.95;2.63;;;;;;;22.62;33.91;101772.91;4199463;28;20442;-68
2022/11/20 01:40:17;;;;;;;5.65;2.10;;;;;;;22.62;34.07;101767.31;4199263;28;20028;-68
2022/11/20 01:44:49;;;;;;;4.38;2.50;;;;;;;22.61;34.22;101766.47;4218109;28;20095;-68
2022/11/20 01:47:02;;;;;;;4.95;2.00;;;;;;;22.62;33.98;101770.09;4210632;28;20036;-68
2022/11/20 01:49:19;;;;;;;4.28;2.30;;;;;;;22.63;34.14;101768.97;4209395;28;20024;-67
2022/11/20 01:51:34;;;;;;;4.10;1.98;;;;;;;22.61;33.99;101760.91;4208660;28;20098;-68
2022/11/20 01:53:37;;;;;;;5.65;2.58;;;;;;;22.63;33.85;101753.09;4211292;28;20032;-68
2022/11/20 01:55:52;;;;;;;6.43;2.58;;;;;;;22.53;33.97;101747.47;4211937;28;20044;-68
2022/11/20 01:57:54;;;;;;;6.03;2.35;;;;;;;22.63;34.16;101753.09;4205698;28;20090;-70
2022/11/20 02:00:08;;;;;;;3.22;1.90;;;;;;;22.56;33.93;101741.34;4198349;28;20089;-67
2022/11/20 02:02:09;;;;;;;3.08;2.05;;;;;;;22.63;34.02;101747.50;4210280;28;20097;-69
2022/11/20 02:04:13;;;;;;;4.65;2.33;;;;;;;22.63;33.76;101753.09;4207744;28;20048;-68
2022/11/20 02:06:26;;;;;;;4.50;1.90;;;;;;;22.59;34.00;101749.19;4200042;28;20047;-68
2022/11/20 02:08:28;;;;;;;4.13;2.00;;;;;;;22.61;33.92;101744.16;4213963;28;20058;-69
2022/11/20 02:10:30;;;;;;;4.10;2.10;;;;;;;22.52;34.01;101735.47;4206659;28;20032;-69
2022/11/20 02:14:52;;;;;;;3.15;1.75;;;;;;;22.61;33.95;101726.59;4198669;28;20082;-68
2022/11/20 02:16:55;;;;;;;4.38;1.88;;;;;;;22.47;33.96;101704.78;4198241;28;20158;-69
2022/11/20 02:18:59;;;;;;;2.88;2.08;;;;;;;22.58;33.86;101722.38;4200036;28;20549;-69
2022/11/20 02:21:12;;;;;;;4.65;3.10;;;;;;;22.03;34.09;101626.22;4208606;28;20090;-68
2022/11/20 02:23:39;;;;;;;10.63;4.45;;;;;;;22.40;33.85;101681.03;4211138;28;20117;-68
2022/11/20 02:25:42;;;;;;;22.65;8.95;;;;;;;22.59;34.29;101707.34;4210872;28;20077;-68
2022/11/20 02:27:47;;;;;;;24.52;10.57;;;;;;;22.57;34.28;101706.75;4208656;28;20540;-69
2022/11/20 02:29:56;;;;;;;27.45;11.90;;;;;;;22.57;33.94;101704.81;4213914;28;20047;-68
2022/11/20 02:32:01;;;;;;;26.20;12.80;;;;;;;22.54;33.87;101691.44;4209788;28;20040;-69
2022/11/20 02:34:02;;;;;;;34.42;14.80;;;;;;;22.55;33.95;101695.88;4213920;28;20532;-69
2022/11/20 02:36:11;;;;;;;29.50;14.32;;;;;;;22.42;34.20;101668.50;4211972;28;20032;-67
2022/11/20 02:38:13;;;;;;;37.50;17.73;;;;;;;22.56;34.05;101696.72;4199856;28;20044;-68
2022/11/20 02:40:17;;;;;;;36.17;17.20;;;;;;;22.56;33.92;101705.09;4206714;28;20031;-69
2022/11/20 02:42:19;;;;;;;46.20;20.27;;;;;;;22.55;33.80;101695.88;4202306;28;20044;-67
2022/11/20 02:44:20;;;;;;;50.10;21.90;;;;;;;22.57;33.72;101692.81;4204802;28;20097;-67
2022/11/20 02:46:21;;;;;;;52.47;24.40;;;;;;;22.57;34.04;101703.97;4212489;28;20059;-66
2022/11/20 02:48:22;;;;;;;54.38;24.40;;;;;;;22.55;34.06;101695.06;4203269;28;20113;-66
2022/11/20 02:50:27;;;;;;;54.85;25.52;;;;;;;22.56;33.92;101707.88;4197884;28;20037;-66
2022/11/20 02:52:28;;;;;;;58.38;27.25;;;;;;;22.57;33.98;101701.19;4212432;28;20378;-66
2022/11/20 02:54:29;;;;;;;60.67;28.35;;;;;;;22.55;34.16;101695.06;4213316;28;20465;-66
2022/11/20 02:56:31;;;;;;;71.45;29.83;;;;;;;22.57;34.25;101692.81;4214147;28;20040;-66
2022/11/20 02:58:32;;;;;;;70.43;32.08;;;;;;;22.56;34.09;101689.19;4209750;28;20024;-67
2022/11/20 03:00:35;;;;;;;75.60;31.40;;;;;;;22.56;34.02;101680.00;4209911;28;20040;-66
2022/11/20 03:02:36;;;;;;;72.30;31.92;;;;;;;22.00;33.92;101582.19;4213752;28;20024;-65
2022/11/20 03:04:43;;;;;;;70.70;34.30;;;;;;;22.55;34.24;101668.00;4213483;28;20036;-66
2022/11/20 03:06:44;;;;;;;77.13;33.78;;;;;;;22.55;34.07;101661.59;4211244;28;20065;-67
2022/11/20 03:11:07;;;;;;;81.53;36.72;;;;;;;22.56;34.15;101657.69;4204620;28;20056;-65
2022/11/20 03:13:09;;;;;;;77.35;35.35;;;;;;;22.57;34.08;101662.13;4197745;28;20109;-65
2022/11/20 03:15:10;;;;;;;78.35;35.63;;;;;;;22.57;34.02;101664.91;4200481;28;20044;-66
2022/11/20 03:17:11;;;;;;;79.07;36.55;;;;;;;22.57;34.31;101650.97;4196944;28;20097;-65
2022/11/20 03:19:13;;;;;;;83.85;36.00;;;;;;;22.55;34.23;101645.69;4197476;28;20032;-66
2022/11/20 03:21:16;;;;;;;70.60;34.90;;;;;;;22.56;33.96;101635.34;4197894;28;20098;-66
2022/11/20 03:23:17;;;;;;;69.18;32.88;;;;;;;22.55;34.15;101628.13;4196228;28;20040;-66
2022/11/20 03:25:21;;;;;;;72.22;35.58;;;;;;;22.54;34.24;101629.19;4208067;28;20465;-66
2022/11/20 03:27:22;;;;;;;74.78;35.85;;;;;;;22.55;34.18;101622.53;4201153;28;20056;-65
2022/11/20 03:29:24;;;;;;;80.80;35.47;;;;;;;22.52;33.95;101612.75;4197224;28;20024;-65
2022/11/20 03:31:35;;;;;;;76.40;35.45;;;;;;;22.51;34.30;101611.09;4197344;28;20037;-66
2022/11/20 03:33:37;;;;;;;69.80;32.65;;;;;;;22.54;33.81;101604.09;4198459;28;20106;-66
2022/11/20 03:35:41;;;;;;;70.15;34.88;;;;;;;22.54;34.23;101592.94;4210907;28;20040;-66
2022/11/20 03:37:42;;;;;;;70.47;34.53;;;;;;;21.92;33.86;101501.91;4207257;28;20040;-65
2022/11/20 03:39:44;;;;;;;71.15;34.08;;;;;;;22.50;33.79;101603.00;4205508;28;20123;-65
2022/11/20 03:41:45;;;;;;;68.85;33.30;;;;;;;22.45;34.19;101591.81;4197902;28;20105;-66
2022/11/20 03:43:55;;;;;;;72.18;34.30;;;;;;;22.44;34.29;101598.50;4198045;28;20049;-65
2022/11/20 03:45:56;;;;;;;66.30;33.03;;;;;;;22.44;34.17;101592.94;4201752;28;20028;-66
2022/11/20 03:47:58;;;;;;;69.10;33.55;;;;;;;22.39;33.98;101588.19;4202918;28;20090;-66
2022/11/20 03:49:59;;;;;;;74.30;32.38;;;;;;;22.36;34.32;101585.09;4210732;28;20040;-66
2022/11/20 03:52:06;;;;;;;63.53;33.25;;;;;;;22.36;34.01;101574.81;4196844;28;20048;-66
2022/11/20 03:54:08;;;;;;;64.57;31.77;;;;;;;22.34;34.03;101577.00;4199089;28;20109;-66
2022/11/20 03:56:12;;;;;;;70.32;32.08;;;;;;;22.27;34.09;101577.28;4201560;28;20048;-65
2022/11/20 03:58:13;;;;;;;60.22;30.70;;;;;;;22.29;34.51;101579.78;4201386;28;20097;-66
2022/11/20 04:00:15;;;;;;;68.13;30.98;;;;;;;22.31;34.49;101578.41;4213688;28;20487;-64
2022/11/20 04:02:16;;;;;;;58.72;29.60;;;;;;;22.33;34.06;101581.75;4213682;28;20032;-67
2022/11/20 04:04:17;;;;;;;63.85;31.63;;;;;;;22.37;34.13;101570.06;4203579;28;20593;-66
2022/11/20 04:06:24;;;;;;;56.03;28.95;;;;;;;22.35;34.27;101567.53;4199979;28;20036;-66
2022/11/20 04:08:26;;;;;;;61.83;29.83;;;;;;;22.38;34.10;101566.16;4201996;28;20097;-66
2022/11/20 04:10:27;;;;;;;57.78;28.40;;;;;;;22.37;34.04;101565.31;4217287;28;20039;-66
2022/11/20 04:12:33;;;;;;;57.63;28.70;;;;;;;22.27;34.05;101534.63;4214431;28;20028;-65
2022/11/20 04:14:34;;;;;;;55.97;26.98;;;;;;;22.36;34.20;101548.84;4217072;28;20479;-65
2022/11/20 04:16:36;;;;;;;60.97;27.63;;;;;;;22.38;34.07;101555.00;4213252;28;20044;-68
2022/11/20 04:18:37;;;;;;;56.17;27.98;;;;;;;22.22;34.30;101515.94;4200697;28;20037;-68
2022/11/20 04:20:39;;;;;;;54.95;26.13;;;;;;;22.41;34.16;101541.34;4200512;28;20074;-67
2022/11/20 04:22:40;;;;;;;53.88;26.50;;;;;;;22.43;34.01;101557.78;4200057;28;20090;-68
2022/11/20 04:24:41;;;;;;;54.35;25.77;;;;;;;22.42;33.80;101542.19;4216755;28;20102;-67
2022/11/20 04:26:42;;;;;;;48.40;25.10;;;;;;;22.44;34.00;101542.72;4216556;28;20397;-67
2022/11/20 04:28:47;;;;;;;47.00;25.77;;;;;;;22.46;33.81;101537.72;4212327;28;20043;-68
2022/11/20 04:30:51;;;;;;;47.95;25.85;;;;;;;22.46;34.11;101524.63;4216710;28;20030;-65
2022/11/20 04:32:52;;;;;;;48.55;26.65;;;;;;;22.48;34.09;101532.69;4214279;28;20383;-68
2022/11/20 04:34:53;;;;;;;51.03;25.45;;;;;;;22.48;33.65;101533.53;4207260;28;20479;-66
2022/11/20 04:36:55;;;;;;;50.45;24.40;;;;;;;22.50;33.66;101541.66;4215215;28;20479;-66
2022/11/20 04:38:59;;;;;;;47.33;23.38;;;;;;;22.50;33.74;101530.50;4216773;28;20044;-68
2022/11/20 04:41:05;;;;;;;47.28;23.90;;;;;;;22.50;33.95;101536.06;4199674;28;20052;-66
2022/11/20 04:43:06;;;;;;;43.35;23.27;;;;;;;22.51;33.68;101537.72;4199917;28;20041;-66
2022/11/20 04:45:11;;;;;;;42.55;23.50;;;;;;;22.51;34.07;101529.38;4199545;28;20098;-66
2022/11/20 04:47:12;;;;;;;40.65;21.45;;;;;;;22.50;34.10;101536.06;4202513;28;20029;-66
2022/11/20 04:49:14;;;;;;;41.00;21.27;;;;;;;22.50;33.79;101520.16;4198511;28;20036;-65
2022/11/20 04:51:15;;;;;;;37.70;21.63;;;;;;;22.46;33.71;101518.22;4215752;28;20098;-66
2022/11/20 04:53:20;;;;;;;41.95;21.80;;;;;;;22.48;33.77;101518.75;4216180;28;20040;-66
2022/11/20 04:55:21;;;;;;;43.35;21.50;;;;;;;22.36;33.58;101502.31;4206846;28;20044;-64
2022/11/20 04:57:23;;;;;;;39.35;19.50;;;;;;;22.38;33.85;101510.38;4199256;28;20468;-65
2022/11/20 04:59:24;;;;;;;40.08;20.65;;;;;;;22.48;33.89;101535.50;4199417;28;20429;-65
2022/11/20 05:01:25;;;;;;;39.10;20.67;;;;;;;22.52;33.72;101550.56;4215886;28;20074;-65
2022/11/20 05:03:27;;;;;;;42.40;19.73;;;;;;;22.50;33.73;101544.44;4212853;28;20028;-66
2022/11/20 05:05:28;;;;;;;37.65;20.02;;;;;;;22.31;33.95;101511.50;4198620;28;20040;-66
2022/11/20 05:07:29;;;;;;;38.25;18.80;;;;;;;22.50;33.88;101550.00;4204820;28;20036;-67
2022/11/20 05:09:31;;;;;;;34.20;19.88;;;;;;;22.41;33.61;101532.97;4200317;28;20177;-66
2022/11/20 05:11:32;;;;;;;56.08;20.20;;;;;;;22.32;33.97;101518.75;4204643;28;20102;-68
2022/11/20 05:13:34;;;;;;;44.17;18.85;;;;;;;22.50;33.73;101544.44;4199400;28;20491;-66
2022/11/20 05:15:35;;;;;;;43.35;18.23;;;;;;;22.50;33.94;101536.06;4212548;28;20036;-67
2022/11/20 05:17:36;;;;;;;39.65;17.45;;;;;;;22.43;34.08;101525.16;4214685;28;20044;-67
2022/11/20 05:19:40;;;;;;;33.20;18.35;;;;;;;22.52;33.80;101539.41;4213859;28;20044;-67
2022/11/20 05:21:42;;;;;;;43.63;18.27;;;;;;;22.48;33.92;101527.13;4215031;28;20098;-65
2022/11/20 05:23:44;;;;;;;39.08;18.15;;;;;;;22.50;33.93;101542.47;4215154;28;20459;-66
2022/11/20 05:25:45;;;;;;;35.35;16.45;;;;;;;22.51;34.15;101532.16;4199853;28;20101;-67
2022/11/20 05:27:47;;;;;;;32.55;16.65;;;;;;;22.51;33.95;101537.72;4200513;28;20056;-66
2022/11/20 05:29:48;;;;;;;34.88;17.15;;;;;;;22.51;33.78;101535.78;4209368;28;20040;-67
2022/11/20 05:31:49;;;;;;;33.30;16.45;;;;;;;22.50;34.11;101530.50;4212154;28;20044;-67
2022/11/20 05:33:51;;;;;;;35.80;17.33;;;;;;;22.27;33.89;101493.66;4209896;28;20097;-66
2022/11/20 05:35:52;;;;;;;36.85;15.45;;;;;;;22.51;34.12;101540.53;4209377;28;20070;-66
2022/11/20 05:37:53;;;;;;;36.47;16.20;;;;;;;22.51;34.30;101537.72;4211077;28;20104;-67
2022/11/20 05:39:55;;;;;;;30.60;15.38;;;;;;;22.50;34.02;101536.06;4206477;28;20032;-66
2022/11/20 05:44:16;;;;;;;31.23;14.95;;;;;;;22.49;34.20;101542.72;4206991;28;20097;-67
2022/11/20 05:46:20;;;;;;;42.38;15.43;;;;;;;22.48;33.96;101533.53;4204753;28;20040;-66
2022/11/20 05:48:21;;;;;;;30.17;13.70;;;;;;;22.50;34.27;101539.69;4229390;28;20076;-66
2022/11/20 05:50:22;;;;;;;27.75;14.82;;;;;;;22.49;34.18;101535.19;4219200;27;20032;-67
2022/11/20 05:52:24;;;;;;;26.38;13.48;;;;;;;22.50;34.35;101541.66;4214967;28;20313;-66
2022/11/20 05:54:25;;;;;;;26.33;14.10;;;;;;;22.51;34.25;101543.31;4206973;28;20430;-66
2022/11/20 05:56:29;;;;;;;28.08;14.02;;;;;;;22.51;34.10;101548.88;4198714;28;20118;-67
2022/11/20 05:58:34;;;;;;;25.95;12.95;;;;;;;22.40;34.01;101524.88;4207649;28;20097;-67
2022/11/20 06:00:35;;;;;;;27.48;13.10;;;;;;;22.42;34.29;101534.66;4215939;28;20078;-67
2022/11/20 06:02:39;;;;;;;25.92;14.23;;;;;;;22.51;34.13;101548.88;4214302;28;20082;-66
2022/11/20 06:04:40;;;;;;;28.02;13.18;;;;;;;22.49;34.11;101546.34;4202632;28;20094;-67
2022/11/20 06:06:42;;;;;;;29.00;12.40;;;;;;;22.42;34.29;101539.41;4212786;28;20105;-67
2022/11/20 06:08:44;;;;;;;23.42;12.55;;;;;;;22.49;34.06;101556.69;4208171;28;20467;-66
2022/11/20 06:10:45;;;;;;;26.38;12.55;;;;;;;22.50;34.23;101564.78;4214450;28;20040;-66
2022/11/20 06:12:46;;;;;;;26.27;12.57;;;;;;;22.49;34.13;101562.25;4215172;28;20040;-66
2022/11/20 06:14:48;;;;;;;29.17;13.13;;;;;;;22.29;34.33;101530.44;4215181;28;20085;-67
2022/11/20 06:16:49;;;;;;;20.67;11.98;;;;;;;22.48;34.26;101555.00;4215046;28;20036;-66
2022/11/20 06:18:56;;;;;;;24.60;12.00;;;;;;;22.40;34.03;101550.81;4214871;28;20476;-66
2022/11/20 06:21:04;;;;;;;20.83;11.48;;;;;;;22.48;34.37;101566.16;4214259;28;20032;-67
2022/11/20 06:23:05;;;;;;;23.13;11.75;;;;;;;22.49;34.38;101567.84;4199089;28;20041;-67
2022/11/20 06:25:15;;;;;;;28.10;12.27;;;;;;;22.49;34.32;101576.19;4202096;28;20071;-67
2022/11/20 06:27:20;;;;;;;22.77;11.57;;;;;;;22.48;34.34;101571.75;4213420;28;20097;-67
2022/11/20 06:29:29;;;;;;;23.53;11.53;;;;;;;22.47;34.16;101573.69;4212937;28;20105;-66
2022/11/20 06:31:34;;;;;;;20.38;10.88;;;;;;;22.46;34.04;101568.41;4210984;28;20273;-66
2022/11/20 06:33:38;;;;;;;;;;;;;;;22.45;33.98;101583.44;4215699;28;20043;-67
2022/11/20 06:35:39;;;;;;;20.77;10.93;;;;;;;22.51;34.09;101574.00;4214951;28;19969;-67
2022/11/20 06:37:41;;;;;;;19.30;10.63;;;;;;;22.50;33.91;101581.53;4214619;28;20032;-66
2022/11/20 06:39:44;;;;;;;18.60;11.18;;;;;;;22.47;34.20;101581.22;4214401;28;20048;-66
2022/11/20 06:41:45;;;;;;;17.83;10.45;;;;;;;22.44;34.38;101584.56;4208572;28;20437;-66
2022/11/20 06:43:47;;;;;;;17.50;9.55;;;;;;;22.39;34.33;101590.97;4205049;28;20036;-67
2022/11/20 06:45:58;;;;;;;20.00;10.43;;;;;;;22.25;34.47;101573.94;4198268;28;20102;-67
2022/11/20 06:47:59;;;;;;;17.70;10.45;;;;;;;22.28;34.46;101576.16;4208217;28;20051;-66
2022/11/20 06:50:01;;;;;;;17.85;9.35;;;;;;;22.38;34.19;101588.47;4213830;28;20036;-66
2022/11/20 06:52:03;;;;;;;16.48;9.43;;;;;;;22.33;34.29;101581.75;4214599;28;20044;-66
2022/11/20 06:54:04;;;;;;;17.90;9.75;;;;;;;22.37;34.15;101592.38;4200145;28;20045;-66
2022/11/20 06:56:06;;;;;;;17.27;9.45;;;;;;;22.37;34.48;101587.63;4198701;28;20434;-66
2022/11/20 06:58:08;;;;;;;15.73;9.10;;;;;;;22.40;34.54;101586.22;4197711;28;20036;-66
2022/11/20 07:00:10;;;;;;;16.50;9.43;;;;;;;22.26;34.47;101567.22;4197799;28;20052;-66
2022/11/20 07:02:19;;;;;;;16.95;9.13;;;;;;;22.29;34.33;101572.25;4198115;28;20474;-66
2022/11/20 07:04:23;;;;;;;16.40;8.77;;;;;;;22.41;34.50;101593.50;4197732;28;20467;-66
2022/11/20 07:06:25;;;;;;;14.37;8.13;;;;;;;22.37;34.50;101579.25;4197246;28;20037;-66
2022/11/20 07:08:26;;;;;;;16.15;8.10;;;;;;;22.43;34.24;101591.25;4200994;28;20289;-66
2022/11/20 07:10:28;;;;;;;16.35;9.43;;;;;;;22.23;34.24;101561.38;4198124;28;20048;-66
2022/11/20 07:12:29;;;;;;;13.20;7.78;;;;;;;22.44;34.36;101596.56;4198189;28;20044;-66
2022/11/20 07:14:30;;;;;;;16.00;8.82;;;;;;;22.42;34.30;101596.00;4199199;28;20316;-66
2022/11/20 07:16:31;;;;;;;13.52;8.32;;;;;;;22.47;34.28;101606.34;4200309;28;20036;-66
2022/11/20 07:18:36;;;;;;;15.43;7.95;;;;;;;22.40;34.03;101589.00;4215303;28;20490;-66
2022/11/20 07:20:37;;;;;;;15.87;7.93;;;;;;;22.38;34.05;101582.88;4223763;28;20043;-66
2022/11/20 07:22:38;;;;;;;15.05;7.13;;;;;;;22.48;34.07;101594.06;4195503;28;20558;-66
2022/11/20 07:24:40;;;;;;;13.13;7.93;;;;;;;22.48;34.32;101594.88;4200475;28;20093;-66
2022/11/20 07:26:41;;;;;;;10.48;7.00;;;;;;;22.41;34.42;101572.03;4212566;28;20031;-66
2022/11/20 07:28:44;;;;;;;12.30;6.63;;;;;;;22.46;33.96;101585.16;4213336;28;20044;-65
2022/11/20 07:30:53;;;;;;;12.07;7.82;;;;;;;22.45;34.25;101589.03;4198720;28;20098;-67
2022/11/20 07:32:56;;;;;;;11.07;7.35;;;;;;;22.50;34.31;101591.84;4202836;28;20078;-68
2022/11/20 07:35:00;;;;;;;11.02;6.45;;;;;;;22.51;34.22;101599.09;4212193;28;20113;-66
2022/11/20 07:37:01;;;;;;;11.75;6.85;;;;;;;22.51;34.05;101593.50;4212434;28;20097;-66
2022/11/20 07:39:06;;;;;;;11.30;7.25;;;;;;;22.44;34.39;101584.56;4216165;28;20482;-66
2022/11/20 07:41:07;;;;;;;12.80;6.85;;;;;;;22.50;34.28;101597.41;4201002;28;20025;-65
2022/11/20 07:43:08;;;;;;;13.73;8.30;;;;;;;22.43;34.22;101580.94;4211939;28;20036;-66
2022/11/20 07:45:10;;;;;;;11.30;6.63;;;;;;;22.51;33.98;101593.50;4216069;28;20101;-67
2022/11/20 07:47:11;;;;;;;9.85;5.80;;;;;;;22.50;34.10;101587.09;4204261;28;20450;-66
2022/11/20 07:49:12;;;;;;;10.85;6.60;;;;;;;22.43;34.14;101580.09;4212576;28;20048;-66
2022/11/20 07:51:14;;;;;;;10.40;6.40;;;;;;;22.49;34.21;101598.50;4215166;28;20036;-66
2022/11/20 07:53:20;;;;;;;10.20;6.10;;;;;;;22.42;34.47;101584.84;4217056;28;20479;-66
2022/11/20 07:55:21;;;;;;;13.05;6.65;;;;;;;22.41;34.45;101583.19;4216964;28;20124;-66
2022/11/20 07:57:23;;;;;;;10.88;6.68;;;;;;;22.45;34.15;101591.81;4212854;28;20495;-65
2022/11/20 07:59:24;;;;;;;8.90;5.88;;;;;;;22.36;34.01;101573.94;4205054;28;20040;-66
2022/11/20 08:01:25;;;;;;;11.70;6.82;;;;;;;22.48;34.05;101589.31;4206081;28;20090;-65
2022/11/20 08:03:27;;;;;;;9.68;5.65;;;;;;;22.50;34.42;101586.28;4217331;28;20070;-66
2022/11/20 08:05:28;;;;;;;10.00;6.03;;;;;;;22.48;34.36;101588.47;4210488;28;20036;-66
2022/11/20 08:07:29;;;;;;;10.43;5.80;;;;;;;22.49;34.34;101590.16;4216972;28;20044;-66
2022/11/20 08:09:30;;;;;;;8.02;5.78;;;;;;;22.47;34.49;101584.03;4217231;28;20429;-66
2022/11/20 08:14:11;;;;;;;8.57;5.93;;;;;;;22.38;34.34;101571.72;4202467;28;20074;-65
2022/11/20 08:16:15;;;;;;;8.02;5.63;;;;;;;22.46;34.49;101574.00;4216940;28;20028;-65
2022/11/20 08:18:17;;;;;;;7.43;5.25;;;;;;;22.46;34.20;101574.81;4216646;28;20032;-66
2022/11/20 08:20:18;;;;;;;7.78;5.28;;;;;;;22.46;34.20;101579.56;4215796;28;20106;-66
2022/11/20 08:22:20;;;;;;;9.18;5.65;;;;;;;22.46;34.11;101585.16;4215884;28;20463;-65
2022/11/20 08:24:21;;;;;;;8.70;5.22;;;;;;;22.38;34.47;101577.31;4216534;28;20479;-64
2022/11/20 08:26:23;;;;;;;9.70;4.93;;;;;;;22.47;34.44;101581.22;4216878;28;20024;-66
2022/11/20 08:28:24;;;;;;;8.20;5.05;;;;;;;22.46;34.14;101585.16;4212130;28;20040;-65
2022/11/20 08:30:26;;;;;;;9.63;5.07;;;;;;;22.47;34.00;101586.81;4212619;28;20085;-65
2022/11/20 08:32:28;;;;;;;7.07;5.10;;;;;;;22.46;34.06;101582.34;4216215;28;20032;-66
2022/11/20 08:34:29;;;;;;;7.00;5.13;;;;;;;22.45;34.40;101578.72;4202759;28;20104;-66
2022/11/20 08:36:34;;;;;;;7.45;4.80;;;;;;;22.45;34.07;101592.69;4209843;28;20044;-66
2022/11/20 08:38:35;;;;;;;7.15;4.45;;;;;;;22.42;34.24;101575.66;4216488;28;20043;-66
2022/11/20 08:40:37;;;;;;;7.30;5.00;;;;;;;22.46;34.11;101585.16;4202144;28;20040;-66
2022/11/20 08:42:47;;;;;;;8.45;4.90;;;;;;;22.27;34.29;101551.38;4213968;28;20040;-66
2022/11/20 08:44:48;;;;;;;6.30;4.57;;;;;;;22.47;34.09;101581.22;4216103;28;20467;-66
2022/11/20 08:46:50;;;;;;;7.82;4.40;;;;;;;22.45;34.41;101587.09;4207457;28;20094;-66
2022/11/20 08:49:00;;;;;;;7.00;4.97;;;;;;;22.46;34.21;101594.34;4203027;28;20085;-66
2022/11/20 08:51:06;;;;;;;5.85;4.68;;;;;;;22.47;34.28;101592.38;4230617;28;20088;-66
2022/11/20 08:53:08;;;;;;;7.60;4.70;;;;;;;22.21;33.92;101558.03;4222706;28;20467;-66
2022/11/20 08:55:10;;;;;;;7.25;4.60;;;;;;;22.43;34.02;101594.88;4216665;28;20039;-66
2022/11/20 08:57:11;;;;;;;7.32;4.68;;;;;;;22.42;34.22;101600.75;4232817;28;20044;-66
2022/11/20 08:59:12;;;;;;;6.18;4.65;;;;;;;22.40;33.96;101605.75;4233430;28;20081;-66
2022/11/20 09:01:14;;;;;;;6.63;4.43;;;;;;;22.37;33.96;101606.31;4226227;28;20024;-67
2022/11/20 09:03:15;;;;;;;5.60;4.40;;;;;;;22.39;34.37;101606.88;4216468;28;20048;-66
2022/11/20 09:05:16;;;;;;;6.25;4.20;;;;;;;22.39;33.96;101618.00;4216419;28;20097;-66
2022/11/20 09:07:17;;;;;;;5.63;4.22;;;;;;;22.37;33.86;101620.25;4216697;28;20085;-66
2022/11/20 09:09:19;;;;;;;6.88;4.65;;;;;;;22.38;34.30;101627.50;4216181;28;20097;-66
2022/11/20 09:11:21;;;;;;;7.50;4.57;;;;;;;22.38;34.22;101633.06;4214681;28;20040;-68
2022/11/20 09:13:24;;;;;;;6.88;4.35;;;;;;;22.35;34.23;101616.88;4215312;28;20040;-65
2022/11/20 09:15:26;;;;;;;6.63;4.20;;;;;;;22.35;33.84;101633.63;4202189;28;20507;-65
2022/11/20 09:17:27;;;;;;;7.70;4.45;;;;;;;22.30;34.38;101634.44;4199444;28;20041;-65
2022/11/20 09:19:28;;;;;;;5.68;3.95;;;;;;;22.18;34.32;101623.53;4199761;28;20041;-66
2022/11/20 09:21:29;;;;;;;5.68;3.83;;;;;;;22.30;34.34;101640.00;4200248;28;20129;-65
2022/11/20 09:23:35;;;;;;;7.32;4.53;;;;;;;22.24;33.99;101633.59;4203049;28;20048;-65
2022/11/20 09:25:36;;;;;;;8.02;4.22;;;;;;;22.22;33.96;101629.38;4215511;28;20097;-66
2022/11/20 09:27:45;;;;;;;5.75;3.83;;;;;;;22.11;34.25;101614.56;4215584;28;20086;-66
2022/11/20 09:29:46;;;;;;;5.60;3.67;;;;;;;22.15;34.41;101640.81;4215479;28;20078;-65
2022/11/20 09:31:51;;;;;;;6.47;3.85;;;;;;;22.14;34.22;101653.06;4215840;28;20089;-66
2022/11/20 09:33:52;;;;;;;5.32;3.60;;;;;;;22.18;34.27;101661.72;4211164;28;20037;-65
2022/11/20 09:35:53;;;;;;;5.32;3.40;;;;;;;22.20;34.33;101677.06;4201826;28;20094;-65